Saxaren — SKHW — position and weather

sailwx.info

Track history (hours):
 
Tides and Currents Weather Stations Pressure Air Temp Water Temp Dewpoint Dewpoint Depression Visibility Wind Speed Wind Dir Waves Ship Positions

Saxaren

Last reported at 2018-Apr-21 07:51 UTC. Time now 2018-Apr-21 08:00 UTC.
Position N 59°18' E 018°54'.

Length 37 m; draft 3 m.

Type: Passenger vessel. MMSI: 265512110.

Date/timePositionNaut miles runAvg speedWind from/ knotsBaromVisibWave heightAir tempDewpointWater temp
2018-Apr-21 07:51N 59°18' E 018°54'6 0.4
2018-Apr-20 18:19N 59°18' E 018°43'611.2
2018-Apr-20 17:49N 59°23' E 018°46'2 7.0
2018-Apr-20 17:30N 59°24' E 018°50'3 5.8
2018-Apr-20 17:00N 59°25' E 018°55'3 5.8
2018-Apr-20 16:25N 59°23' E 018°51'4 3.9
2018-Apr-20 15:27N 59°23' E 018°43'715.6
2018-Apr-20 15:00N 59°27' E 018°55'5 5.8
2018-Apr-20 14:12N 59°22' E 018°53'3 7.3
2018-Apr-20 13:45N 59°24' E 018°47'2 8.3
2018-Apr-20 13:28N 59°23' E 018°42'2 4.1
2018-Apr-20 12:56N 59°23' E 018°38'612.8
2018-Apr-20 12:29N 59°26' E 018°28'4 9.4
2018-Apr-20 12:00N 59°24' E 018°21'4 8.7
2018-Apr-20 11:31N 59°21' E 018°15'510.6
2018-Apr-20 11:00N 59°20' E 018°04'0 0.1
2018-Apr-20 10:30N 59°20' E 018°05'0 0.0
2018-Apr-20 10:00N 59°20' E 018°05'0 0.0
2018-Apr-20 09:30N 59°20' E 018°05'0 0.7
2018-Apr-20 09:00N 59°19' E 018°05'510.6
2018-Apr-20 08:31N 59°21' E 018°14'5 9.0
2018-Apr-20 08:01N 59°24' E 018°21'3 6.3
2018-Apr-20 07:30N 59°27' E 018°23'4 7.6
2018-Apr-20 07:00N 59°28' E 018°30'2 4.8
2018-Apr-20 06:30N 59°26' E 018°27'5 9.8
2018-Apr-20 06:00N 59°23' E 018°34'3 6.2
2018-Apr-20 05:29N 59°26' E 018°38'2 4.6
2018-Apr-20 05:00N 59°26' E 018°42'5 9.3
2018-Apr-20 04:30N 59°29' E 018°50'1 2.3
2018-Apr-20 04:00N 59°30' E 018°51'0 0.0
2018-Apr-20 03:30N 59°30' E 018°51'0 0.0
2018-Apr-20 02:59N 59°30' E 018°51'0 0.0
2018-Apr-20 02:30N 59°30' E 018°51'0 0.0
2018-Apr-20 01:58N 59°30' E 018°51'0 0.0
2018-Apr-20 01:30N 59°30' E 018°51'0 0.0
2018-Apr-20 01:00N 59°30' E 018°51'0 0.0
2018-Apr-20 00:29N 59°30' E 018°51'0 0.0
2018-Apr-20 00:00N 59°30' E 018°51'0 0.0
2018-Apr-19 23:30N 59°30' E 018°51'0 0.0
2018-Apr-19 22:58N 59°30' E 018°51'0 0.0
2018-Apr-19 22:28N 59°30' E 018°51'0 0.0
2018-Apr-19 21:50N 59°30' E 018°51'0 0.0
2018-Apr-19 20:31N 59°30' E 018°51'0 0.0
2018-Apr-19 20:22N 59°30' E 018°51'0 0.0
2018-Apr-19 19:56N 59°30' E 018°51'0 0.0
2018-Apr-19 19:30N 59°30' E 018°51'0 0.0
2018-Apr-19 18:57N 59°30' E 018°51'0 0.0
2018-Apr-19 18:30N 59°30' E 018°51'0 0.0
2018-Apr-19 18:00N 59°30' E 018°51'0 0.0
2018-Apr-19 17:30N 59°30' E 018°51'0 0.0
2018-Apr-19 17:00N 59°30' E 018°51'4 8.0
2018-Apr-19 16:30N 59°28' E 018°44'2 4.8
2018-Apr-19 16:00N 59°26' E 018°41'3 6.7
2018-Apr-19 15:30N 59°23' E 018°38'4 7.1
2018-Apr-19 15:00N 59°25' E 018°31'3 6.3
2018-Apr-19 14:30N 59°25' E 018°25'3 6.0
2018-Apr-19 14:00N 59°24' E 018°21'4 8.4
2018-Apr-19 13:31N 59°21' E 018°14'510.5
2018-Apr-19 13:01N 59°20' E 018°05'0 0.1
2018-Apr-19 12:30N 59°20' E 018°05'0 0.0
2018-Apr-19 12:00N 59°20' E 018°05'0 0.0
2018-Apr-19 11:30N 59°20' E 018°05'0 0.0
2018-Apr-19 11:00N 59°20' E 018°05'0 0.0
2018-Apr-19 10:30N 59°20' E 018°05'0 0.0
2018-Apr-19 10:00N 59°20' E 018°05'0 0.0
2018-Apr-19 09:30N 59°20' E 018°05'0 0.0
2018-Apr-19 09:00N 59°20' E 018°05'0 0.0
2018-Apr-19 08:30N 59°20' E 018°05'0 0.0
2018-Apr-19 08:00N 59°20' E 018°05'0 0.0
2018-Apr-19 07:30N 59°20' E 018°05'0 0.0
2018-Apr-19 07:00N 59°20' E 018°05'0 0.0
2018-Apr-19 06:30N 59°20' E 018°05'0 0.0
2018-Apr-19 06:00N 59°20' E 018°05'0 0.0
2018-Apr-19 05:30N 59°20' E 018°05'0 0.0
2018-Apr-19 05:00N 59°20' E 018°05'0 0.0
2018-Apr-19 04:30N 59°20' E 018°05'0 0.0
2018-Apr-19 04:00N 59°20' E 018°05'0 0.0
2018-Apr-19 03:30N 59°20' E 018°05'0 0.0
2018-Apr-19 03:00N 59°20' E 018°05'0 0.0
2018-Apr-19 02:30N 59°20' E 018°05'0 0.0
2018-Apr-19 02:00N 59°20' E 018°05'0 0.0
2018-Apr-19 01:30N 59°20' E 018°05'0 0.0
2018-Apr-19 01:00N 59°20' E 018°05'0 0.0
2018-Apr-19 00:30N 59°20' E 018°05'0 0.0
2018-Apr-19 00:00N 59°20' E 018°05'0 0.0
2018-Apr-18 23:30N 59°20' E 018°05'0 0.0
2018-Apr-18 23:00N 59°20' E 018°05'0 0.0
2018-Apr-18 22:30N 59°20' E 018°05'0 0.0
2018-Apr-18 22:00N 59°20' E 018°05'0 0.0
2018-Apr-18 21:30N 59°20' E 018°05'0 0.0
2018-Apr-18 21:00N 59°20' E 018°05'0 0.0
2018-Apr-18 20:30N 59°20' E 018°05'0 0.0
2018-Apr-18 20:00N 59°20' E 018°05'0 0.0
2018-Apr-18 19:30N 59°20' E 018°05'0 0.0
2018-Apr-18 19:00N 59°20' E 018°05'0 0.0
2018-Apr-18 18:30N 59°20' E 018°05'0 0.0
2018-Apr-18 18:00N 59°20' E 018°05'0 0.0
2018-Apr-18 17:30N 59°20' E 018°05'0 0.0
2018-Apr-18 17:00N 59°20' E 018°05'0 0.0
2018-Apr-18 16:30N 59°20' E 018°05'0 0.0
2018-Apr-18 16:00N 59°20' E 018°05'0 0.0
2018-Apr-18 15:30N 59°20' E 018°05'0 0.0
2018-Apr-18 15:00N 59°20' E 018°05'0 0.0
2018-Apr-18 14:30N 59°20' E 018°05'1 1.6
2018-Apr-18 14:00N 59°19' E 018°06'5 9.8
2018-Apr-18 13:30N 59°21' E 018°15'5 9.1
2018-Apr-18 13:00N 59°24' E 018°21'4 7.1
2018-Apr-18 12:30N 59°26' E 018°27'612.7
2018-Apr-18 12:00N 59°23' E 018°38'1 2.7
2018-Apr-18 11:31N 59°22' E 018°36'0 0.0
2018-Apr-18 11:00N 59°22' E 018°36'0 0.0
2018-Apr-18 10:30N 59°22' E 018°36'0 0.0
2018-Apr-18 09:57N 59°22' E 018°36'0 0.8
2018-Apr-18 09:28N 59°22' E 018°37'5 7.9
2018-Apr-18 08:49N 59°25' E 018°29'3 8.2
2018-Apr-18 08:30N 59°26' E 018°24'2 4.7
2018-Apr-18 08:00N 59°24' E 018°21'5 9.5
2018-Apr-18 07:30N 59°21' E 018°14'5 9.7
2018-Apr-18 07:00N 59°20' E 018°05'0 0.0
2018-Apr-18 06:30N 59°20' E 018°05'0 0.0
2018-Apr-18 06:01N 59°20' E 018°05'0 0.0
2018-Apr-18 05:30N 59°20' E 018°05'0 0.0
2018-Apr-18 05:00N 59°20' E 018°05'0 0.0
2018-Apr-18 04:30N 59°20' E 018°05'0 0.0
2018-Apr-18 04:00N 59°20' E 018°05'0 0.0
2018-Apr-18 03:31N 59°20' E 018°05'0 0.0
2018-Apr-18 03:00N 59°20' E 018°05'0 0.0
2018-Apr-18 02:30N 59°20' E 018°05'0 0.0
2018-Apr-18 02:00N 59°20' E 018°05'0 0.0
2018-Apr-18 01:31N 59°20' E 018°05'0 0.0
2018-Apr-18 01:00N 59°20' E 018°05'0 0.0
2018-Apr-18 00:30N 59°20' E 018°05'0 0.0
2018-Apr-18 00:00N 59°20' E 018°05'0 0.0
2018-Apr-17 23:31N 59°20' E 018°05'0 0.0
2018-Apr-17 23:00N 59°20' E 018°05'0 0.0
2018-Apr-17 22:30N 59°20' E 018°05'0 0.0
2018-Apr-17 22:00N 59°20' E 018°05'0 0.0
2018-Apr-17 21:31N 59°20' E 018°05'0 0.0
2018-Apr-17 21:00N 59°20' E 018°05'0 0.0
2018-Apr-17 20:30N 59°20' E 018°05'0 0.0
2018-Apr-17 20:00N 59°20' E 018°05'0 0.0
2018-Apr-17 19:30N 59°20' E 018°05'0 0.0
2018-Apr-17 19:00N 59°20' E 018°05'0 0.0
2018-Apr-17 18:30N 59°20' E 018°05'0 0.0
2018-Apr-17 18:00N 59°20' E 018°05'0 0.0
2018-Apr-17 17:30N 59°20' E 018°05'0 0.0
2018-Apr-17 17:00N 59°20' E 018°05'0 0.0
2018-Apr-17 16:30N 59°20' E 018°05'0 0.0
2018-Apr-17 16:00N 59°20' E 018°05'0 0.0
2018-Apr-17 15:30N 59°20' E 018°05'0 0.1
2018-Apr-17 15:00N 59°20' E 018°05'0 0.1
2018-Apr-17 14:30N 59°20' E 018°05'0 0.0
2018-Apr-17 14:00N 59°20' E 018°05'0 0.0
2018-Apr-17 13:31N 59°20' E 018°05'0 0.0
2018-Apr-17 13:00N 59°20' E 018°05'0 0.0
2018-Apr-17 12:30N 59°20' E 018°05'0 0.0
2018-Apr-17 12:00N 59°20' E 018°05'0 0.0
2018-Apr-17 11:30N 59°20' E 018°05'0 0.0
2018-Apr-17 11:00N 59°20' E 018°05'0 0.0
2018-Apr-17 10:30N 59°20' E 018°05'0 0.0
2018-Apr-17 10:00N 59°20' E 018°05'0 0.0
2018-Apr-17 09:30N 59°20' E 018°05'0 0.0
2018-Apr-17 09:00N 59°20' E 018°05'0 0.0
2018-Apr-17 08:31N 59°20' E 018°05'0 0.0
2018-Apr-17 08:00N 59°20' E 018°05'0 0.0
2018-Apr-17 07:31N 59°20' E 018°05'0 0.0
2018-Apr-17 07:00N 59°20' E 018°05'0 0.0
2018-Apr-17 06:30N 59°20' E 018°05'0 0.0
2018-Apr-17 06:00N 59°20' E 018°05'0 0.0
2018-Apr-17 05:31N 59°20' E 018°05'0 0.0
2018-Apr-17 05:00N 59°20' E 018°05'0 0.0
2018-Apr-17 04:31N 59°20' E 018°05'0 0.0
2018-Apr-17 04:00N 59°20' E 018°05'0 0.0
2018-Apr-17 03:30N 59°20' E 018°05'0 0.0
2018-Apr-17 03:00N 59°20' E 018°05'0 0.0
2018-Apr-17 02:30N 59°20' E 018°05'0 0.0
2018-Apr-17 02:00N 59°20' E 018°05'0 0.0
2018-Apr-17 01:30N 59°20' E 018°05'0 0.0
2018-Apr-17 01:00N 59°20' E 018°05'0 0.0
2018-Apr-17 00:30N 59°20' E 018°05'0 0.0
2018-Apr-17 00:00N 59°20' E 018°05'0 0.0
2018-Apr-16 23:30N 59°20' E 018°05'0 0.0
2018-Apr-16 23:01N 59°20' E 018°05'0 0.0
2018-Apr-16 22:30N 59°20' E 018°05'0 0.0
2018-Apr-16 22:00N 59°20' E 018°05'0 0.0
2018-Apr-16 21:30N 59°20' E 018°05'0 0.0
2018-Apr-16 21:00N 59°20' E 018°05'0 0.0
2018-Apr-16 20:30N 59°20' E 018°05'0 0.0
2018-Apr-16 20:00N 59°20' E 018°05'0 0.0
2018-Apr-16 19:30N 59°20' E 018°05'0 0.0
2018-Apr-16 19:01N 59°20' E 018°05'0 0.0
2018-Apr-16 18:31N 59°20' E 018°05'0 0.0
2018-Apr-16 18:01N 59°20' E 018°05'0 0.0
2018-Apr-16 17:30N 59°20' E 018°05'0 0.0
2018-Apr-16 17:00N 59°20' E 018°05'0 0.0
2018-Apr-16 16:30N 59°20' E 018°05'0 0.0
2018-Apr-16 16:00N 59°20' E 018°05'0 0.0
2018-Apr-16 15:30N 59°20' E 018°05'0 0.0
2018-Apr-16 15:00N 59°20' E 018°05'0 0.0
2018-Apr-16 14:30N 59°20' E 018°05'0 0.0
2018-Apr-16 14:00N 59°20' E 018°05'0 0.0
2018-Apr-16 13:31N 59°20' E 018°05'0 0.0
2018-Apr-16 13:00N 59°20' E 018°05'0 0.0
2018-Apr-16 12:30N 59°20' E 018°05'0 0.0
2018-Apr-16 12:00N 59°20' E 018°05'0 0.0
2018-Apr-16 11:30N 59°20' E 018°05'0 0.0
2018-Apr-16 11:00N 59°20' E 018°05'0 0.0
2018-Apr-16 10:30N 59°20' E 018°05'0 0.0
2018-Apr-16 10:00N 59°20' E 018°05'0 0.0
2018-Apr-16 09:30N 59°20' E 018°05'0 0.0
2018-Apr-16 09:00N 59°20' E 018°05'0 0.0
2018-Apr-16 08:30N 59°20' E 018°05'0 0.0
2018-Apr-16 08:00N 59°20' E 018°05'0 0.0
2018-Apr-16 07:30N 59°20' E 018°05'0 0.0
2018-Apr-16 07:00N 59°20' E 018°05'0 0.0
2018-Apr-16 06:30N 59°20' E 018°05'0 0.0
2018-Apr-16 06:00N 59°20' E 018°05'0 0.0
2018-Apr-16 05:30N 59°20' E 018°05'0 0.0
2018-Apr-16 05:00N 59°20' E 018°05'0 0.0
2018-Apr-16 04:30N 59°20' E 018°05'0 0.0
2018-Apr-16 04:00N 59°20' E 018°05'0 0.0
2018-Apr-16 03:30N 59°20' E 018°05'0 0.0
2018-Apr-16 03:00N 59°20' E 018°05'0 0.0
2018-Apr-16 02:30N 59°20' E 018°05'0 0.0
2018-Apr-16 02:00N 59°20' E 018°05'0 0.0
2018-Apr-16 01:30N 59°20' E 018°05'0 0.0
2018-Apr-16 01:00N 59°20' E 018°05'0 0.0
2018-Apr-16 00:30N 59°20' E 018°05'0 0.0
2018-Apr-16 00:00N 59°20' E 018°05'0 0.0
2018-Apr-15 23:30N 59°20' E 018°05'0 0.0
2018-Apr-15 23:00N 59°20' E 018°05'0 0.0
2018-Apr-15 22:30N 59°20' E 018°05'0 0.0
2018-Apr-15 22:00N 59°20' E 018°05'0 0.0
2018-Apr-15 21:31N 59°20' E 018°05'0 0.0
2018-Apr-15 21:00N 59°20' E 018°05'0 0.0
2018-Apr-15 20:30N 59°20' E 018°05'0 0.0
2018-Apr-15 20:01N 59°20' E 018°05'0 0.0
2018-Apr-15 19:30N 59°20' E 018°05'1 1.0
2018-Apr-15 19:00N 59°19' E 018°05'612.9
2018-Apr-15 18:30N 59°22' E 018°17'3 6.5
2018-Apr-15 18:00N 59°24' E 018°21'4 7.0
2018-Apr-15 17:30N 59°26' E 018°28'510.5
2018-Apr-15 17:00N 59°22' E 018°36'4 7.1
2018-Apr-15 16:28N 59°23' E 018°43'6 5.0
2018-Apr-15 15:12N 59°25' E 018°55'2 7.8
2018-Apr-15 15:00N 59°27' E 018°55'712.8
2018-Apr-15 14:27N 59°21' E 018°48'4 9.8
2018-Apr-15 14:00N 59°17' E 018°44'5 1.2
2018-Apr-15 09:51N 59°18' E 018°54'5 1.8
2018-Apr-15 07:18N 59°18' E 018°45'5 1.9
2018-Apr-15 04:29N 59°17' E 018°55'0 0.0
2018-Apr-15 04:00N 59°17' E 018°55'0 0.0
2018-Apr-15 02:54N 59°17' E 018°55'0 0.0
2018-Apr-15 02:25N 59°17' E 018°55'0 0.0
2018-Apr-15 02:00N 59°17' E 018°55'0 0.0
2018-Apr-15 01:30N 59°17' E 018°55'0 0.0
2018-Apr-15 00:49N 59°17' E 018°55'0 0.0
2018-Apr-15 00:30N 59°17' E 018°55'0 0.0
2018-Apr-15 00:00N 59°17' E 018°55'0 0.0
2018-Apr-14 23:31N 59°17' E 018°55'0 0.0
2018-Apr-14 23:00N 59°17' E 018°55'0 0.0
2018-Apr-14 22:29N 59°17' E 018°55'0 0.0
2018-Apr-14 22:00N 59°17' E 018°55'0 0.0
2018-Apr-14 21:30N 59°17' E 018°55'0 0.0
2018-Apr-14 20:37N 59°17' E 018°55'0 0.0
2018-Apr-14 19:01N 59°17' E 018°55'0 0.0
2018-Apr-14 18:59N 59°17' E 018°55'0 0.0
2018-Apr-14 18:21N 59°17' E 018°55'0 0.0
2018-Apr-14 18:00N 59°17' E 018°55'0 0.0
2018-Apr-14 17:30N 59°17' E 018°55'0 0.0
2018-Apr-14 17:00N 59°17' E 018°55'4 8.3
2018-Apr-14 16:30N 59°18' E 018°47'2 1.6
2018-Apr-14 14:57N 59°17' E 018°43'510.0
2018-Apr-14 14:30N 59°19' E 018°51'2 4.5
2018-Apr-14 14:00N 59°18' E 018°55'2 2.5
2018-Apr-14 13:12N 59°20' E 018°54'2 7.9
2018-Apr-14 12:54N 59°17' E 018°55'5 9.9
2018-Apr-14 12:21N 59°17' E 018°44'1 1.5
2018-Apr-14 11:54N 59°17' E 018°43'4 2.8
2018-Apr-14 10:22N 59°18' E 018°51'3 7.9
2018-Apr-14 10:00N 59°18' E 018°45'1 1.9
2018-Apr-14 09:17N 59°17' E 018°43'2 6.4
2018-Apr-14 08:57N 59°18' E 018°47'4 5.9
2018-Apr-14 08:12N 59°21' E 018°54'212.3
2018-Apr-14 08:00N 59°18' E 018°54'3 5.2
2018-Apr-14 07:29N 59°19' E 018°49'4 3.8
2018-Apr-14 06:30N 59°17' E 018°42'1 0.0
2018-Apr-13 18:33N 59°18' E 018°43'114.3
2018-Apr-13 18:30N 59°18' E 018°43'5 9.8
2018-Apr-13 18:00N 59°23' E 018°45'4 7.3
2018-Apr-13 17:29N 59°26' E 018°50'2 4.6
2018-Apr-13 17:00N 59°25' E 018°55'4 4.3
2018-Apr-13 16:00N 59°24' E 018°47'2 3.8
2018-Apr-13 15:30N 59°24' E 018°43'713.9
2018-Apr-13 15:00N 59°27' E 018°55'3 5.3
2018-Apr-13 14:26N 59°24' E 018°53'3 6.1
2018-Apr-13 14:00N 59°23' E 018°48'2 3.9
2018-Apr-13 13:28N 59°23' E 018°44'2 5.0
2018-Apr-13 13:00N 59°23' E 018°39'612.1
2018-Apr-13 12:28N 59°25' E 018°28'4 7.7
2018-Apr-13 12:00N 59°24' E 018°21'510.1
2018-Apr-13 11:30N 59°21' E 018°14'5 9.7
2018-Apr-13 11:01N 59°20' E 018°05'0 0.0
2018-Apr-13 10:30N 59°20' E 018°05'0 0.0
2018-Apr-13 10:01N 59°20' E 018°05'0 0.0
2018-Apr-13 09:31N 59°20' E 018°05'1 1.1
2018-Apr-13 09:00N 59°19' E 018°05'510.9
2018-Apr-13 08:31N 59°22' E 018°15'4 8.3
2018-Apr-13 08:00N 59°24' E 018°21'3 6.7
2018-Apr-13 07:30N 59°27' E 018°24'4 7.1
2018-Apr-13 07:00N 59°28' E 018°31'2 3.8
2018-Apr-13 06:30N 59°26' E 018°30'5 9.6
2018-Apr-13 05:59N 59°22' E 018°36'4 6.7
2018-Apr-13 05:26N 59°25' E 018°41'3 6.5
2018-Apr-13 05:00N 59°27' E 018°45'3 6.4
2018-Apr-13 04:31N 59°29' E 018°50'1 2.4
2018-Apr-13 03:59N 59°30' E 018°51'0 0.0
2018-Apr-13 03:30N 59°30' E 018°51'0 0.0
2018-Apr-13 02:54N 59°30' E 018°51'0 0.0
2018-Apr-13 02:30N 59°30' E 018°51'0 0.0
2018-Apr-13 02:00N 59°30' E 018°51'0 0.0
2018-Apr-13 01:30N 59°30' E 018°51'0 0.0
2018-Apr-13 01:00N 59°30' E 018°51'0 0.0
2018-Apr-13 00:30N 59°30' E 018°51'0 0.0
2018-Apr-13 00:00N 59°30' E 018°51'0 0.0
2018-Apr-12 23:30N 59°30' E 018°51'0 0.0
2018-Apr-12 23:00N 59°30' E 018°51'0 0.0
2018-Apr-12 22:29N 59°30' E 018°51'0 0.0
2018-Apr-12 22:00N 59°30' E 018°51'0 0.0
2018-Apr-12 21:30N 59°30' E 018°51'0 0.0
2018-Apr-12 21:00N 59°30' E 018°51'0 0.0
2018-Apr-12 20:21N 59°30' E 018°51'0 0.0
2018-Apr-12 19:04N 59°30' E 018°51'0 0.0
2018-Apr-12 18:56N 59°30' E 018°51'0 0.0
2018-Apr-12 18:28N 59°30' E 018°51'0 0.0
2018-Apr-12 17:59N 59°30' E 018°51'0 0.0
2018-Apr-12 17:28N 59°30' E 018°51'5 8.9
2018-Apr-12 16:57N 59°27' E 018°44'3 5.8
2018-Apr-12 16:30N 59°25' E 018°40'2 4.4
2018-Apr-12 16:00N 59°23' E 018°38'6 9.2
2018-Apr-12 15:24N 59°25' E 018°28'4 9.0
2018-Apr-12 15:00N 59°24' E 018°21'0 0.9
2018-Apr-12 14:30N 59°24' E 018°21'714.7
2018-Apr-12 14:00N 59°19' E 018°10'3 5.6
2018-Apr-12 13:30N 59°20' E 018°05'0 0.0
2018-Apr-12 13:00N 59°20' E 018°05'0 0.0
2018-Apr-12 12:30N 59°20' E 018°05'0 0.0
2018-Apr-12 12:00N 59°20' E 018°05'0 0.0
2018-Apr-12 11:30N 59°20' E 018°05'0 0.0
2018-Apr-12 11:00N 59°20' E 018°05'0 0.0
2018-Apr-12 10:30N 59°20' E 018°05'0 0.0
2018-Apr-12 10:00N 59°20' E 018°05'0 0.0
2018-Apr-12 09:30N 59°20' E 018°05'0 0.0
2018-Apr-12 09:00N 59°20' E 018°05'0 0.0
2018-Apr-12 08:30N 59°20' E 018°05'0 0.0
2018-Apr-12 08:00N 59°20' E 018°05'0 0.0
2018-Apr-12 07:30N 59°20' E 018°05'0 0.0
2018-Apr-12 07:00N 59°20' E 018°05'0 0.0
2018-Apr-12 06:30N 59°20' E 018°05'0 0.0
2018-Apr-12 06:00N 59°20' E 018°05'0 0.0
2018-Apr-12 05:30N 59°20' E 018°05'0 0.0
2018-Apr-12 04:59N 59°20' E 018°05'0 0.0
2018-Apr-12 04:30N 59°20' E 018°05'0 0.0
2018-Apr-12 04:00N 59°20' E 018°05'0 0.0
2018-Apr-12 03:30N 59°20' E 018°05'0 0.0
2018-Apr-12 03:00N 59°20' E 018°05'0 0.0
2018-Apr-12 02:30N 59°20' E 018°05'0 0.0
2018-Apr-12 02:00N 59°20' E 018°05'0 0.0
2018-Apr-12 01:30N 59°20' E 018°05'0 0.0
2018-Apr-12 01:00N 59°20' E 018°05'0 0.0
2018-Apr-12 00:30N 59°20' E 018°05'0 0.0
2018-Apr-12 00:00N 59°20' E 018°05'0 0.0
2018-Apr-11 23:30N 59°20' E 018°05'0 0.0
2018-Apr-11 23:00N 59°20' E 018°05'0 0.0
2018-Apr-11 22:30N 59°20' E 018°05'0 0.0
2018-Apr-11 22:00N 59°20' E 018°05'0 0.0
2018-Apr-11 21:30N 59°20' E 018°05'0 0.0
2018-Apr-11 21:00N 59°20' E 018°05'0 0.0
2018-Apr-11 20:30N 59°20' E 018°05'0 0.0
2018-Apr-11 20:00N 59°20' E 018°05'0 0.0
2018-Apr-11 19:30N 59°20' E 018°05'0 0.0
2018-Apr-11 19:00N 59°20' E 018°05'0 0.0
2018-Apr-11 18:30N 59°20' E 018°05'0 0.0
2018-Apr-11 18:00N 59°20' E 018°05'0 0.0
2018-Apr-11 17:30N 59°20' E 018°05'0 0.0
2018-Apr-11 17:00N 59°20' E 018°05'0 0.0
2018-Apr-11 16:30N 59°20' E 018°05'0 0.0
2018-Apr-11 16:00N 59°20' E 018°05'0 0.0
2018-Apr-11 15:30N 59°20' E 018°05'0 0.0
2018-Apr-11 15:00N 59°20' E 018°05'0 0.0
2018-Apr-11 14:30N 59°20' E 018°05'0 0.0
2018-Apr-11 14:00N 59°20' E 018°05'0 0.0
2018-Apr-11 13:30N 59°20' E 018°05'1 1.2
2018-Apr-11 13:00N 59°19' E 018°05'1 1.3
2018-Apr-11 12:30N 59°20' E 018°05'0 0.0
2018-Apr-11 12:00N 59°20' E 018°05'0 0.0
2018-Apr-11 11:30N 59°20' E 018°05'0 0.3
2018-Apr-11 11:00N 59°20' E 018°05'0 0.0
2018-Apr-11 10:30N 59°20' E 018°05'0 0.1
2018-Apr-11 10:00N 59°20' E 018°05'0 0.0
2018-Apr-11 09:30N 59°20' E 018°05'0 0.0
2018-Apr-11 09:00N 59°20' E 018°05'0 0.0
2018-Apr-11 08:30N 59°20' E 018°05'0 0.0
2018-Apr-11 08:00N 59°20' E 018°05'  
Track history (hours):
 
Tides and Currents Weather Stations Pressure Air Temp Water Temp Dewpoint Dewpoint Depression Visibility Wind Speed Wind Dir Waves Ship Positions

Saxaren

Last reported at 2018-Apr-21 07:51 UTC. Time now 2018-Apr-21 08:00 UTC.
Position N 59°18' E 018°54'.

Length 37 m; draft 3 m.

Type: Passenger vessel. MMSI: 265512110.

Date/timePositionNaut miles runAvg speedWind from/ knotsBaromVisibWave heightAir tempDewpointWater temp
2018-Apr-21 07:51N 59°18' E 018°54'6 0.4
2018-Apr-20 18:19N 59°18' E 018°43'611.2
2018-Apr-20 17:49N 59°23' E 018°46'2 7.0
2018-Apr-20 17:30N 59°24' E 018°50'3 5.8
2018-Apr-20 17:00N 59°25' E 018°55'3 5.8
2018-Apr-20 16:25N 59°23' E 018°51'4 3.9
2018-Apr-20 15:27N 59°23' E 018°43'715.6
2018-Apr-20 15:00N 59°27' E 018°55'5 5.8
2018-Apr-20 14:12N 59°22' E 018°53'3 7.3
2018-Apr-20 13:45N 59°24' E 018°47'2 8.3
2018-Apr-20 13:28N 59°23' E 018°42'2 4.1
2018-Apr-20 12:56N 59°23' E 018°38'612.8
2018-Apr-20 12:29N 59°26' E 018°28'4 9.4
2018-Apr-20 12:00N 59°24' E 018°21'4 8.7
2018-Apr-20 11:31N 59°21' E 018°15'510.6
2018-Apr-20 11:00N 59°20' E 018°04'0 0.1
2018-Apr-20 10:30N 59°20' E 018°05'0 0.0
2018-Apr-20 10:00N 59°20' E 018°05'0 0.0
2018-Apr-20 09:30N 59°20' E 018°05'0 0.7
2018-Apr-20 09:00N 59°19' E 018°05'510.6
2018-Apr-20 08:31N 59°21' E 018°14'5 9.0
2018-Apr-20 08:01N 59°24' E 018°21'3 6.3
2018-Apr-20 07:30N 59°27' E 018°23'4 7.6
2018-Apr-20 07:00N 59°28' E 018°30'2 4.8
2018-Apr-20 06:30N 59°26' E 018°27'5 9.8
2018-Apr-20 06:00N 59°23' E 018°34'3 6.2
2018-Apr-20 05:29N 59°26' E 018°38'2 4.6
2018-Apr-20 05:00N 59°26' E 018°42'5 9.3
2018-Apr-20 04:30N 59°29' E 018°50'1 2.3
2018-Apr-20 04:00N 59°30' E 018°51'0 0.0
2018-Apr-20 03:30N 59°30' E 018°51'0 0.0
2018-Apr-20 02:59N 59°30' E 018°51'0 0.0
2018-Apr-20 02:30N 59°30' E 018°51'0 0.0
2018-Apr-20 01:58N 59°30' E 018°51'0 0.0
2018-Apr-20 01:30N 59°30' E 018°51'0 0.0
2018-Apr-20 01:00N 59°30' E 018°51'0 0.0
2018-Apr-20 00:29N 59°30' E 018°51'0 0.0
2018-Apr-20 00:00N 59°30' E 018°51'0 0.0
2018-Apr-19 23:30N 59°30' E 018°51'0 0.0
2018-Apr-19 22:58N 59°30' E 018°51'0 0.0
2018-Apr-19 22:28N 59°30' E 018°51'0 0.0
2018-Apr-19 21:50N 59°30' E 018°51'0 0.0
2018-Apr-19 20:31N 59°30' E 018°51'0 0.0
2018-Apr-19 20:22N 59°30' E 018°51'0 0.0
2018-Apr-19 19:56N 59°30' E 018°51'0 0.0
2018-Apr-19 19:30N 59°30' E 018°51'0 0.0
2018-Apr-19 18:57N 59°30' E 018°51'0 0.0
2018-Apr-19 18:30N 59°30' E 018°51'0 0.0
2018-Apr-19 18:00N 59°30' E 018°51'0 0.0
2018-Apr-19 17:30N 59°30' E 018°51'0 0.0
2018-Apr-19 17:00N 59°30' E 018°51'4 8.0
2018-Apr-19 16:30N 59°28' E 018°44'2 4.8
2018-Apr-19 16:00N 59°26' E 018°41'3 6.7
2018-Apr-19 15:30N 59°23' E 018°38'4 7.1
2018-Apr-19 15:00N 59°25' E 018°31'3 6.3
2018-Apr-19 14:30N 59°25' E 018°25'3 6.0
2018-Apr-19 14:00N 59°24' E 018°21'4 8.4
2018-Apr-19 13:31N 59°21' E 018°14'510.5
2018-Apr-19 13:01N 59°20' E 018°05'0 0.1
2018-Apr-19 12:30N 59°20' E 018°05'0 0.0
2018-Apr-19 12:00N 59°20' E 018°05'0 0.0
2018-Apr-19 11:30N 59°20' E 018°05'0 0.0
2018-Apr-19 11:00N 59°20' E 018°05'0 0.0
2018-Apr-19 10:30N 59°20' E 018°05'0 0.0
2018-Apr-19 10:00N 59°20' E 018°05'0 0.0
2018-Apr-19 09:30N 59°20' E 018°05'0 0.0
2018-Apr-19 09:00N 59°20' E 018°05'0 0.0
2018-Apr-19 08:30N 59°20' E 018°05'0 0.0
2018-Apr-19 08:00N 59°20' E 018°05'0 0.0
2018-Apr-19 07:30N 59°20' E 018°05'0 0.0
2018-Apr-19 07:00N 59°20' E 018°05'0 0.0
2018-Apr-19 06:30N 59°20' E 018°05'0 0.0
2018-Apr-19 06:00N 59°20' E 018°05'0 0.0
2018-Apr-19 05:30N 59°20' E 018°05'0 0.0
2018-Apr-19 05:00N 59°20' E 018°05'0 0.0
2018-Apr-19 04:30N 59°20' E 018°05'0 0.0
2018-Apr-19 04:00N 59°20' E 018°05'0 0.0
2018-Apr-19 03:30N 59°20' E 018°05'0 0.0
2018-Apr-19 03:00N 59°20' E 018°05'0 0.0
2018-Apr-19 02:30N 59°20' E 018°05'0 0.0
2018-Apr-19 02:00N 59°20' E 018°05'0 0.0
2018-Apr-19 01:30N 59°20' E 018°05'0 0.0
2018-Apr-19 01:00N 59°20' E 018°05'0 0.0
2018-Apr-19 00:30N 59°20' E 018°05'0 0.0
2018-Apr-19 00:00N 59°20' E 018°05'0 0.0
2018-Apr-18 23:30N 59°20' E 018°05'0 0.0
2018-Apr-18 23:00N 59°20' E 018°05'0 0.0
2018-Apr-18 22:30N 59°20' E 018°05'0 0.0
2018-Apr-18 22:00N 59°20' E 018°05'0 0.0
2018-Apr-18 21:30N 59°20' E 018°05'0 0.0
2018-Apr-18 21:00N 59°20' E 018°05'0 0.0
2018-Apr-18 20:30N 59°20' E 018°05'0 0.0
2018-Apr-18 20:00N 59°20' E 018°05'0 0.0
2018-Apr-18 19:30N 59°20' E 018°05'0 0.0
2018-Apr-18 19:00N 59°20' E 018°05'0 0.0
2018-Apr-18 18:30N 59°20' E 018°05'0 0.0
2018-Apr-18 18:00N 59°20' E 018°05'0 0.0
2018-Apr-18 17:30N 59°20' E 018°05'0 0.0
2018-Apr-18 17:00N 59°20' E 018°05'0 0.0
2018-Apr-18 16:30N 59°20' E 018°05'0 0.0
2018-Apr-18 16:00N 59°20' E 018°05'0 0.0
2018-Apr-18 15:30N 59°20' E 018°05'0 0.0
2018-Apr-18 15:00N 59°20' E 018°05'0 0.0
2018-Apr-18 14:30N 59°20' E 018°05'1 1.6
2018-Apr-18 14:00N 59°19' E 018°06'5 9.8
2018-Apr-18 13:30N 59°21' E 018°15'5 9.1
2018-Apr-18 13:00N 59°24' E 018°21'4 7.1
2018-Apr-18 12:30N 59°26' E 018°27'612.7
2018-Apr-18 12:00N 59°23' E 018°38'1 2.7
2018-Apr-18 11:31N 59°22' E 018°36'0 0.0
2018-Apr-18 11:00N 59°22' E 018°36'0 0.0
2018-Apr-18 10:30N 59°22' E 018°36'0 0.0
2018-Apr-18 09:57N 59°22' E 018°36'0 0.8
2018-Apr-18 09:28N 59°22' E 018°37'5 7.9
2018-Apr-18 08:49N 59°25' E 018°29'3 8.2
2018-Apr-18 08:30N 59°26' E 018°24'2 4.7
2018-Apr-18 08:00N 59°24' E 018°21'5 9.5
2018-Apr-18 07:30N 59°21' E 018°14'5 9.7
2018-Apr-18 07:00N 59°20' E 018°05'0 0.0
2018-Apr-18 06:30N 59°20' E 018°05'0 0.0
2018-Apr-18 06:01N 59°20' E 018°05'0 0.0
2018-Apr-18 05:30N 59°20' E 018°05'0 0.0
2018-Apr-18 05:00N 59°20' E 018°05'0 0.0
2018-Apr-18 04:30N 59°20' E 018°05'0 0.0
2018-Apr-18 04:00N 59°20' E 018°05'0 0.0
2018-Apr-18 03:31N 59°20' E 018°05'0 0.0
2018-Apr-18 03:00N 59°20' E 018°05'0 0.0
2018-Apr-18 02:30N 59°20' E 018°05'0 0.0
2018-Apr-18 02:00N 59°20' E 018°05'0 0.0
2018-Apr-18 01:31N 59°20' E 018°05'0 0.0
2018-Apr-18 01:00N 59°20' E 018°05'0 0.0
2018-Apr-18 00:30N 59°20' E 018°05'0 0.0
2018-Apr-18 00:00N 59°20' E 018°05'0 0.0
2018-Apr-17 23:31N 59°20' E 018°05'0 0.0
2018-Apr-17 23:00N 59°20' E 018°05'0 0.0
2018-Apr-17 22:30N 59°20' E 018°05'0 0.0
2018-Apr-17 22:00N 59°20' E 018°05'0 0.0
2018-Apr-17 21:31N 59°20' E 018°05'0 0.0
2018-Apr-17 21:00N 59°20' E 018°05'0 0.0
2018-Apr-17 20:30N 59°20' E 018°05'0 0.0
2018-Apr-17 20:00N 59°20' E 018°05'0 0.0
2018-Apr-17 19:30N 59°20' E 018°05'0 0.0
2018-Apr-17 19:00N 59°20' E 018°05'0 0.0
2018-Apr-17 18:30N 59°20' E 018°05'0 0.0
2018-Apr-17 18:00N 59°20' E 018°05'0 0.0
2018-Apr-17 17:30N 59°20' E 018°05'0 0.0
2018-Apr-17 17:00N 59°20' E 018°05'0 0.0
2018-Apr-17 16:30N 59°20' E 018°05'0 0.0
2018-Apr-17 16:00N 59°20' E 018°05'0 0.0
2018-Apr-17 15:30N 59°20' E 018°05'0 0.1
2018-Apr-17 15:00N 59°20' E 018°05'0 0.1
2018-Apr-17 14:30N 59°20' E 018°05'0 0.0
2018-Apr-17 14:00N 59°20' E 018°05'0 0.0
2018-Apr-17 13:31N 59°20' E 018°05'0 0.0
2018-Apr-17 13:00N 59°20' E 018°05'0 0.0
2018-Apr-17 12:30N 59°20' E 018°05'0 0.0
2018-Apr-17 12:00N 59°20' E 018°05'0 0.0
2018-Apr-17 11:30N 59°20' E 018°05'0 0.0
2018-Apr-17 11:00N 59°20' E 018°05'0 0.0
2018-Apr-17 10:30N 59°20' E 018°05'0 0.0
2018-Apr-17 10:00N 59°20' E 018°05'0 0.0
2018-Apr-17 09:30N 59°20' E 018°05'0 0.0
2018-Apr-17 09:00N 59°20' E 018°05'0 0.0
2018-Apr-17 08:31N 59°20' E 018°05'0 0.0
2018-Apr-17 08:00N 59°20' E 018°05'0 0.0
2018-Apr-17 07:31N 59°20' E 018°05'0 0.0
2018-Apr-17 07:00N 59°20' E 018°05'0 0.0
2018-Apr-17 06:30N 59°20' E 018°05'0 0.0
2018-Apr-17 06:00N 59°20' E 018°05'0 0.0
2018-Apr-17 05:31N 59°20' E 018°05'0 0.0
2018-Apr-17 05:00N 59°20' E 018°05'0 0.0
2018-Apr-17 04:31N 59°20' E 018°05'0 0.0
2018-Apr-17 04:00N 59°20' E 018°05'0 0.0
2018-Apr-17 03:30N 59°20' E 018°05'0 0.0
2018-Apr-17 03:00N 59°20' E 018°05'0 0.0
2018-Apr-17 02:30N 59°20' E 018°05'0 0.0
2018-Apr-17 02:00N 59°20' E 018°05'0 0.0
2018-Apr-17 01:30N 59°20' E 018°05'0 0.0
2018-Apr-17 01:00N 59°20' E 018°05'0 0.0
2018-Apr-17 00:30N 59°20' E 018°05'0 0.0
2018-Apr-17 00:00N 59°20' E 018°05'0 0.0
2018-Apr-16 23:30N 59°20' E 018°05'0 0.0
2018-Apr-16 23:01N 59°20' E 018°05'0 0.0
2018-Apr-16 22:30N 59°20' E 018°05'0 0.0
2018-Apr-16 22:00N 59°20' E 018°05'0 0.0
2018-Apr-16 21:30N 59°20' E 018°05'0 0.0
2018-Apr-16 21:00N 59°20' E 018°05'0 0.0
2018-Apr-16 20:30N 59°20' E 018°05'0 0.0
2018-Apr-16 20:00N 59°20' E 018°05'0 0.0
2018-Apr-16 19:30N 59°20' E 018°05'0 0.0
2018-Apr-16 19:01N 59°20' E 018°05'0 0.0
2018-Apr-16 18:31N 59°20' E 018°05'0 0.0
2018-Apr-16 18:01N 59°20' E 018°05'0 0.0
2018-Apr-16 17:30N 59°20' E 018°05'0 0.0
2018-Apr-16 17:00N 59°20' E 018°05'0 0.0
2018-Apr-16 16:30N 59°20' E 018°05'0 0.0
2018-Apr-16 16:00N 59°20' E 018°05'0 0.0
2018-Apr-16 15:30N 59°20' E 018°05'0 0.0
2018-Apr-16 15:00N 59°20' E 018°05'0 0.0
2018-Apr-16 14:30N 59°20' E 018°05'0 0.0
2018-Apr-16 14:00N 59°20' E 018°05'0 0.0
2018-Apr-16 13:31N 59°20' E 018°05'0 0.0
2018-Apr-16 13:00N 59°20' E 018°05'0 0.0
2018-Apr-16 12:30N 59°20' E 018°05'0 0.0
2018-Apr-16 12:00N 59°20' E 018°05'0 0.0
2018-Apr-16 11:30N 59°20' E 018°05'0 0.0
2018-Apr-16 11:00N 59°20' E 018°05'0 0.0
2018-Apr-16 10:30N 59°20' E 018°05'0 0.0
2018-Apr-16 10:00N 59°20' E 018°05'0 0.0
2018-Apr-16 09:30N 59°20' E 018°05'0 0.0
2018-Apr-16 09:00N 59°20' E 018°05'0 0.0
2018-Apr-16 08:30N 59°20' E 018°05'0 0.0
2018-Apr-16 08:00N 59°20' E 018°05'0 0.0
2018-Apr-16 07:30N 59°20' E 018°05'0 0.0
2018-Apr-16 07:00N 59°20' E 018°05'0 0.0
2018-Apr-16 06:30N 59°20' E 018°05'0 0.0
2018-Apr-16 06:00N 59°20' E 018°05'0 0.0
2018-Apr-16 05:30N 59°20' E 018°05'0 0.0
2018-Apr-16 05:00N 59°20' E 018°05'0 0.0
2018-Apr-16 04:30N 59°20' E 018°05'0 0.0
2018-Apr-16 04:00N 59°20' E 018°05'0 0.0
2018-Apr-16 03:30N 59°20' E 018°05'0 0.0
2018-Apr-16 03:00N 59°20' E 018°05'0 0.0
2018-Apr-16 02:30N 59°20' E 018°05'0 0.0
2018-Apr-16 02:00N 59°20' E 018°05'0 0.0
2018-Apr-16 01:30N 59°20' E 018°05'0 0.0
2018-Apr-16 01:00N 59°20' E 018°05'0 0.0
2018-Apr-16 00:30N 59°20' E 018°05'0 0.0
2018-Apr-16 00:00N 59°20' E 018°05'0 0.0
2018-Apr-15 23:30N 59°20' E 018°05'0 0.0
2018-Apr-15 23:00N 59°20' E 018°05'0 0.0
2018-Apr-15 22:30N 59°20' E 018°05'0 0.0
2018-Apr-15 22:00N 59°20' E 018°05'0 0.0
2018-Apr-15 21:31N 59°20' E 018°05'0 0.0
2018-Apr-15 21:00N 59°20' E 018°05'0 0.0
2018-Apr-15 20:30N 59°20' E 018°05'0 0.0
2018-Apr-15 20:01N 59°20' E 018°05'0 0.0
2018-Apr-15 19:30N 59°20' E 018°05'1 1.0
2018-Apr-15 19:00N 59°19' E 018°05'612.9
2018-Apr-15 18:30N 59°22' E 018°17'3 6.5
2018-Apr-15 18:00N 59°24' E 018°21'4 7.0
2018-Apr-15 17:30N 59°26' E 018°28'510.5
2018-Apr-15 17:00N 59°22' E 018°36'4 7.1
2018-Apr-15 16:28N 59°23' E 018°43'6 5.0
2018-Apr-15 15:12N 59°25' E 018°55'2 7.8
2018-Apr-15 15:00N 59°27' E 018°55'712.8
2018-Apr-15 14:27N 59°21' E 018°48'4 9.8
2018-Apr-15 14:00N 59°17' E 018°44'5 1.2
2018-Apr-15 09:51N 59°18' E 018°54'5 1.8
2018-Apr-15 07:18N 59°18' E 018°45'5 1.9
2018-Apr-15 04:29N 59°17' E 018°55'0 0.0
2018-Apr-15 04:00N 59°17' E 018°55'0 0.0
2018-Apr-15 02:54N 59°17' E 018°55'0 0.0
2018-Apr-15 02:25N 59°17' E 018°55'0 0.0
2018-Apr-15 02:00N 59°17' E 018°55'0 0.0
2018-Apr-15 01:30N 59°17' E 018°55'0 0.0
2018-Apr-15 00:49N 59°17' E 018°55'0 0.0
2018-Apr-15 00:30N 59°17' E 018°55'0 0.0
2018-Apr-15 00:00N 59°17' E 018°55'0 0.0
2018-Apr-14 23:31N 59°17' E 018°55'0 0.0
2018-Apr-14 23:00N 59°17' E 018°55'0 0.0
2018-Apr-14 22:29N 59°17' E 018°55'0 0.0
2018-Apr-14 22:00N 59°17' E 018°55'0 0.0
2018-Apr-14 21:30N 59°17' E 018°55'0 0.0
2018-Apr-14 20:37N 59°17' E 018°55'0 0.0
2018-Apr-14 19:01N 59°17' E 018°55'0 0.0
2018-Apr-14 18:59N 59°17' E 018°55'0 0.0
2018-Apr-14 18:21N 59°17' E 018°55'0 0.0
2018-Apr-14 18:00N 59°17' E 018°55'0 0.0
2018-Apr-14 17:30N 59°17' E 018°55'0 0.0
2018-Apr-14 17:00N 59°17' E 018°55'4 8.3
2018-Apr-14 16:30N 59°18' E 018°47'2 1.6
2018-Apr-14 14:57N 59°17' E 018°43'510.0
2018-Apr-14 14:30N 59°19' E 018°51'2 4.5
2018-Apr-14 14:00N 59°18' E 018°55'2 2.5
2018-Apr-14 13:12N 59°20' E 018°54'2 7.9
2018-Apr-14 12:54N 59°17' E 018°55'5 9.9
2018-Apr-14 12:21N 59°17' E 018°44'1 1.5
2018-Apr-14 11:54N 59°17' E 018°43'4 2.8
2018-Apr-14 10:22N 59°18' E 018°51'3 7.9
2018-Apr-14 10:00N 59°18' E 018°45'1 1.9
2018-Apr-14 09:17N 59°17' E 018°43'2 6.4
2018-Apr-14 08:57N 59°18' E 018°47'4 5.9
2018-Apr-14 08:12N 59°21' E 018°54'212.3
2018-Apr-14 08:00N 59°18' E 018°54'3 5.2
2018-Apr-14 07:29N 59°19' E 018°49'4 3.8
2018-Apr-14 06:30N 59°17' E 018°42'1 0.0
2018-Apr-13 18:33N 59°18' E 018°43'114.3
2018-Apr-13 18:30N 59°18' E 018°43'5 9.8
2018-Apr-13 18:00N 59°23' E 018°45'4 7.3
2018-Apr-13 17:29N 59°26' E 018°50'2 4.6
2018-Apr-13 17:00N 59°25' E 018°55'4 4.3
2018-Apr-13 16:00N 59°24' E 018°47'2 3.8
2018-Apr-13 15:30N 59°24' E 018°43'713.9
2018-Apr-13 15:00N 59°27' E 018°55'3 5.3
2018-Apr-13 14:26N 59°24' E 018°53'3 6.1
2018-Apr-13 14:00N 59°23' E 018°48'2 3.9
2018-Apr-13 13:28N 59°23' E 018°44'2 5.0
2018-Apr-13 13:00N 59°23' E 018°39'612.1
2018-Apr-13 12:28N 59°25' E 018°28'4 7.7
2018-Apr-13 12:00N 59°24' E 018°21'510.1
2018-Apr-13 11:30N 59°21' E 018°14'5 9.7
2018-Apr-13 11:01N 59°20' E 018°05'0 0.0
2018-Apr-13 10:30N 59°20' E 018°05'0 0.0
2018-Apr-13 10:01N 59°20' E 018°05'0 0.0
2018-Apr-13 09:31N 59°20' E 018°05'1 1.1
2018-Apr-13 09:00N 59°19' E 018°05'510.9
2018-Apr-13 08:31N 59°22' E 018°15'4 8.3
2018-Apr-13 08:00N 59°24' E 018°21'3 6.7
2018-Apr-13 07:30N 59°27' E 018°24'4 7.1
2018-Apr-13 07:00N 59°28' E 018°31'2 3.8
2018-Apr-13 06:30N 59°26' E 018°30'5 9.6
2018-Apr-13 05:59N 59°22' E 018°36'4 6.7
2018-Apr-13 05:26N 59°25' E 018°41'3 6.5
2018-Apr-13 05:00N 59°27' E 018°45'3 6.4
2018-Apr-13 04:31N 59°29' E 018°50'1 2.4
2018-Apr-13 03:59N 59°30' E 018°51'0 0.0
2018-Apr-13 03:30N 59°30' E 018°51'0 0.0
2018-Apr-13 02:54N 59°30' E 018°51'0 0.0
2018-Apr-13 02:30N 59°30' E 018°51'0 0.0
2018-Apr-13 02:00N 59°30' E 018°51'0 0.0
2018-Apr-13 01:30N 59°30' E 018°51'0 0.0
2018-Apr-13 01:00N 59°30' E 018°51'0 0.0
2018-Apr-13 00:30N 59°30' E 018°51'0 0.0
2018-Apr-13 00:00N 59°30' E 018°51'0 0.0
2018-Apr-12 23:30N 59°30' E 018°51'0 0.0
2018-Apr-12 23:00N 59°30' E 018°51'0 0.0
2018-Apr-12 22:29N 59°30' E 018°51'0 0.0
2018-Apr-12 22:00N 59°30' E 018°51'0 0.0
2018-Apr-12 21:30N 59°30' E 018°51'0 0.0
2018-Apr-12 21:00N 59°30' E 018°51'0 0.0
2018-Apr-12 20:21N 59°30' E 018°51'0 0.0
2018-Apr-12 19:04N 59°30' E 018°51'0 0.0
2018-Apr-12 18:56N 59°30' E 018°51'0 0.0
2018-Apr-12 18:28N 59°30' E 018°51'0 0.0
2018-Apr-12 17:59N 59°30' E 018°51'0 0.0
2018-Apr-12 17:28N 59°30' E 018°51'5 8.9
2018-Apr-12 16:57N 59°27' E 018°44'3 5.8
2018-Apr-12 16:30N 59°25' E 018°40'2 4.4
2018-Apr-12 16:00N 59°23' E 018°38'6 9.2
2018-Apr-12 15:24N 59°25' E 018°28'4 9.0
2018-Apr-12 15:00N 59°24' E 018°21'0 0.9
2018-Apr-12 14:30N 59°24' E 018°21'714.7
2018-Apr-12 14:00N 59°19' E 018°10'3 5.6
2018-Apr-12 13:30N 59°20' E 018°05'0 0.0
2018-Apr-12 13:00N 59°20' E 018°05'0 0.0
2018-Apr-12 12:30N 59°20' E 018°05'0 0.0
2018-Apr-12 12:00N 59°20' E 018°05'0 0.0
2018-Apr-12 11:30N 59°20' E 018°05'0 0.0
2018-Apr-12 11:00N 59°20' E 018°05'0 0.0
2018-Apr-12 10:30N 59°20' E 018°05'0 0.0
2018-Apr-12 10:00N 59°20' E 018°05'0 0.0
2018-Apr-12 09:30N 59°20' E 018°05'0 0.0
2018-Apr-12 09:00N 59°20' E 018°05'0 0.0
2018-Apr-12 08:30N 59°20' E 018°05'0 0.0
2018-Apr-12 08:00N 59°20' E 018°05'0 0.0
2018-Apr-12 07:30N 59°20' E 018°05'0 0.0
2018-Apr-12 07:00N 59°20' E 018°05'0 0.0
2018-Apr-12 06:30N 59°20' E 018°05'0 0.0
2018-Apr-12 06:00N 59°20' E 018°05'0 0.0
2018-Apr-12 05:30N 59°20' E 018°05'0 0.0
2018-Apr-12 04:59N 59°20' E 018°05'0 0.0
2018-Apr-12 04:30N 59°20' E 018°05'0 0.0
2018-Apr-12 04:00N 59°20' E 018°05'0 0.0
2018-Apr-12 03:30N 59°20' E 018°05'0 0.0
2018-Apr-12 03:00N 59°20' E 018°05'0 0.0
2018-Apr-12 02:30N 59°20' E 018°05'0 0.0
2018-Apr-12 02:00N 59°20' E 018°05'0 0.0
2018-Apr-12 01:30N 59°20' E 018°05'0 0.0
2018-Apr-12 01:00N 59°20' E 018°05'0 0.0
2018-Apr-12 00:30N 59°20' E 018°05'0 0.0
2018-Apr-12 00:00N 59°20' E 018°05'0 0.0
2018-Apr-11 23:30N 59°20' E 018°05'0 0.0
2018-Apr-11 23:00N 59°20' E 018°05'0 0.0
2018-Apr-11 22:30N 59°20' E 018°05'0 0.0
2018-Apr-11 22:00N 59°20' E 018°05'0 0.0
2018-Apr-11 21:30N 59°20' E 018°05'0 0.0
2018-Apr-11 21:00N 59°20' E 018°05'0 0.0
2018-Apr-11 20:30N 59°20' E 018°05'0 0.0
2018-Apr-11 20:00N 59°20' E 018°05'0 0.0
2018-Apr-11 19:30N 59°20' E 018°05'0 0.0
2018-Apr-11 19:00N 59°20' E 018°05'0 0.0
2018-Apr-11 18:30N 59°20' E 018°05'0 0.0
2018-Apr-11 18:00N 59°20' E 018°05'0 0.0
2018-Apr-11 17:30N 59°20' E 018°05'0 0.0
2018-Apr-11 17:00N 59°20' E 018°05'0 0.0
2018-Apr-11 16:30N 59°20' E 018°05'0 0.0
2018-Apr-11 16:00N 59°20' E 018°05'0 0.0
2018-Apr-11 15:30N 59°20' E 018°05'0 0.0
2018-Apr-11 15:00N 59°20' E 018°05'0 0.0
2018-Apr-11 14:30N 59°20' E 018°05'0 0.0
2018-Apr-11 14:00N 59°20' E 018°05'0 0.0
2018-Apr-11 13:30N 59°20' E 018°05'1 1.2
2018-Apr-11 13:00N 59°19' E 018°05'1 1.3
2018-Apr-11 12:30N 59°20' E 018°05'0 0.0
2018-Apr-11 12:00N 59°20' E 018°05'0 0.0
2018-Apr-11 11:30N 59°20' E 018°05'0 0.3
2018-Apr-11 11:00N 59°20' E 018°05'0 0.0
2018-Apr-11 10:30N 59°20' E 018°05'0 0.1
2018-Apr-11 10:00N 59°20' E 018°05'0 0.0
2018-Apr-11 09:30N 59°20' E 018°05'0 0.0
2018-Apr-11 09:00N 59°20' E 018°05'0 0.0
2018-Apr-11 08:30N 59°20' E 018°05'0 0.0
2018-Apr-11 08:00N 59°20' E 018°05'  

Dump ship's entire track history